Time;durP1;ratioP1;P1;durP2;ratioP2;P2;SDS_P1;SDS_P2;PMS_P1;PMS_P2;Temp;Humidity;BMP_temperature;BMP_pressure;BME280_temperature;BME280_humidity;BME280_pressure;Samples;Min_cycle;Max_cycle;Signal;HPM_P1;HPM_P2
2023/05/12 00:00:09;;;;;;;10.80;5.90;;;;;;;12.17;100.00;101505.00;4988379;28;20026;-67
2023/05/12 00:02:37;;;;;;;9.00;5.60;;;;;;;12.12;100.00;101504.41;5009156;28;20042;-67
2023/05/12 00:05:03;;;;;;;9.77;5.38;;;;;;;12.09;100.00;101503.78;5008159;28;20040;-67
2023/05/12 00:07:28;;;;;;;9.00;5.55;;;;;;;12.09;100.00;101498.31;4988567;28;20057;-67
2023/05/12 00:09:54;;;;;;;7.93;5.93;;;;;;;12.08;100.00;101492.00;4989488;28;20038;-67
2023/05/12 00:12:19;;;;;;;9.93;6.00;;;;;;;12.08;100.00;101497.44;4989003;28;20050;-67
2023/05/12 00:14:44;;;;;;;11.35;6.40;;;;;;;12.11;100.00;101499.94;4989524;28;20038;-67
2023/05/12 00:17:10;;;;;;;9.73;6.40;;;;;;;12.11;100.00;101494.50;4988045;28;20109;-67
2023/05/12 00:19:35;;;;;;;9.23;5.70;;;;;;;12.15;100.00;101495.16;4989156;28;20121;-68
2023/05/12 00:22:01;;;;;;;9.73;6.22;;;;;;;12.18;100.00;101494.97;4987626;28;20041;-68
2023/05/12 00:24:26;;;;;;;12.07;6.68;;;;;;;12.20;100.00;101493.84;4989888;28;20149;-67
2023/05/12 00:26:53;;;;;;;10.10;7.05;;;;;;;12.14;100.00;101480.66;4989186;28;20140;-67
2023/05/12 00:29:18;;;;;;;10.80;7.50;;;;;;;12.20;100.00;101485.69;4988989;28;20052;-67
2023/05/12 00:31:44;;;;;;;14.05;7.43;;;;;;;12.19;100.00;101492.13;4987724;28;20106;-67
2023/05/12 00:34:09;;;;;;;11.65;7.30;;;;;;;12.19;100.00;101491.25;4988834;28;20034;-67
2023/05/12 00:36:35;;;;;;;10.48;6.90;;;;;;;12.13;100.00;101488.94;4988378;28;20053;-67
2023/05/12 00:39:01;;;;;;;12.13;7.28;;;;;;;12.10;100.00;101492.75;4986833;28;20108;-67
2023/05/12 00:41:27;;;;;;;11.35;7.28;;;;;;;12.03;100.00;101490.53;4988235;28;20456;-68
2023/05/12 00:43:52;;;;;;;11.38;7.03;;;;;;;12.02;100.00;101488.78;4988734;28;20449;-67
2023/05/12 00:46:18;;;;;;;14.15;8.35;;;;;;;12.00;100.00;101486.19;4989334;28;20026;-68
2023/05/12 00:48:44;;;;;;;10.40;7.68;;;;;;;11.96;100.00;101490.97;4988532;28;20168;-67
2023/05/12 00:51:11;;;;;;;11.18;7.80;;;;;;;11.94;100.00;101483.88;4987939;28;20516;-68
2023/05/12 00:53:37;;;;;;;9.63;7.18;;;;;;;11.89;100.00;101488.75;4989808;28;20095;-68
2023/05/12 00:56:02;;;;;;;17.15;7.50;;;;;;;11.89;100.00;101486.91;4987128;28;20030;-68
2023/05/12 00:58:28;;;;;;;15.25;8.30;;;;;;;11.86;100.00;101480.78;5004011;28;20117;-68
2023/05/12 01:00:54;;;;;;;12.38;7.47;;;;;;;11.85;100.00;101479.94;4987336;28;20417;-67
2023/05/12 01:03:19;;;;;;;10.50;7.47;;;;;;;11.82;100.00;101474.66;4999086;28;20205;-68
2023/05/12 01:05:54;;;;;;;10.55;7.65;;;;;;;11.76;100.00;101464.16;5005821;28;20032;-68
2023/05/12 01:08:20;;;;;;;9.85;6.78;;;;;;;11.82;100.00;101480.13;4987009;28;20612;-68
2023/05/12 01:10:46;;;;;;;10.82;7.45;;;;;;;11.78;100.00;101472.22;4987227;28;20030;-67
2023/05/12 01:13:14;;;;;;;11.35;7.30;;;;;;;11.77;100.00;101474.06;4986920;28;20042;-67
2023/05/12 01:15:43;;;;;;;10.77;7.32;;;;;;;11.78;100.00;101472.22;4987057;28;20693;-67
2023/05/12 01:18:10;;;;;;;11.13;8.02;;;;;;;11.78;100.00;101470.38;4986456;28;20034;-67
2023/05/12 01:20:37;;;;;;;13.20;8.27;;;;;;;11.75;100.00;101468.72;4986947;28;20045;-68
2023/05/12 01:23:04;;;;;;;15.05;8.45;;;;;;;11.75;100.00;101470.59;4985202;28;20058;-67
2023/05/12 01:25:32;;;;;;;15.80;8.88;;;;;;;11.70;100.00;101461.81;4986916;28;20026;-68
2023/05/12 01:28:01;;;;;;;13.32;9.07;;;;;;;11.71;100.00;101460.88;4986896;28;20553;-68
2023/05/12 01:30:28;;;;;;;15.00;9.32;;;;;;;11.64;100.00;101465.84;4987237;28;20084;-67
2023/05/12 01:32:54;;;;;;;13.23;8.05;;;;;;;11.65;100.00;101458.53;4986021;28;20101;-67
2023/05/12 01:35:19;;;;;;;12.15;8.75;;;;;;;11.63;100.00;101455.91;4986610;28;20296;-68
2023/05/12 01:37:55;;;;;;;14.60;8.75;;;;;;;11.64;100.00;101457.66;4986006;28;20050;-68
2023/05/12 01:40:21;;;;;;;12.57;7.95;;;;;;;11.65;100.00;101461.25;4986355;28;20112;-67
2023/05/12 01:42:47;;;;;;;12.40;7.22;;;;;;;11.61;100.00;101457.88;4986430;28;20096;-68
2023/05/12 01:45:12;;;;;;;10.63;7.65;;;;;;;11.60;100.00;101461.56;4986346;28;20042;-67
2023/05/12 01:47:38;;;;;;;11.52;7.72;;;;;;;11.57;100.00;101455.47;4986179;28;20097;-68
2023/05/12 01:50:06;;;;;;;9.77;6.95;;;;;;;11.48;100.00;101457.81;4985959;28;20038;-68
2023/05/12 01:52:32;;;;;;;12.32;7.57;;;;;;;11.45;100.00;101459.88;4986467;28;20046;-69
2023/05/12 01:54:57;;;;;;;12.43;6.93;;;;;;;11.41;100.00;101450.16;4986418;28;20100;-68
2023/05/12 01:57:23;;;;;;;12.27;7.22;;;;;;;11.41;100.00;101450.16;4989646;28;20019;-68
2023/05/12 01:59:52;;;;;;;12.07;7.38;;;;;;;11.42;100.00;101452.78;4986355;28;20069;-68
2023/05/12 02:02:17;;;;;;;10.57;7.32;;;;;;;11.42;100.00;101450.06;4985935;28;20412;-68
2023/05/12 02:04:42;;;;;;;14.32;7.78;;;;;;;11.43;100.00;101442.75;4987930;28;20418;-68
2023/05/12 02:07:08;;;;;;;11.30;6.90;;;;;;;11.42;100.00;101441.91;4990465;28;20072;-67
2023/05/12 02:09:33;;;;;;;11.18;7.32;;;;;;;11.42;100.00;101443.72;4997007;28;20117;-67
2023/05/12 02:12:01;;;;;;;10.85;6.53;;;;;;;11.35;100.00;101445.97;4969873;28;20058;-68
2023/05/12 02:14:26;;;;;;;11.68;6.53;;;;;;;11.33;100.00;101439.78;4986734;28;20454;-68
2023/05/12 02:16:52;;;;;;;11.90;5.63;;;;;;;11.28;100.00;101435.59;4985767;28;20049;-68
2023/05/12 02:19:19;;;;;;;8.95;5.45;;;;;;;11.26;100.00;101438.41;4986273;28;20394;-67
2023/05/12 02:21:46;;;;;;;12.00;5.57;;;;;;;11.31;100.00;101439.00;4985357;28;20550;-67
2023/05/12 02:24:12;;;;;;;9.75;5.70;;;;;;;11.32;100.00;101431.69;4986750;28;20104;-68
2023/05/12 02:26:37;;;;;;;10.45;5.72;;;;;;;11.33;100.00;101437.06;4985871;28;20485;-68
2023/05/12 02:29:03;;;;;;;8.77;5.72;;;;;;;11.32;100.00;101427.09;4987476;28;20489;-67
2023/05/12 02:31:28;;;;;;;8.35;5.72;;;;;;;11.32;100.00;101426.25;4986631;28;20046;-67
2023/05/12 02:33:54;;;;;;;10.70;5.55;;;;;;;11.31;100.00;101424.50;4986634;28;20041;-68
2023/05/12 02:36:19;;;;;;;7.47;5.22;;;;;;;11.27;100.00;101422.94;4985014;28;20041;-68
2023/05/12 02:38:44;;;;;;;8.70;5.45;;;;;;;11.28;100.00;101424.69;4985152;28;20032;-68
2023/05/12 02:41:10;;;;;;;6.68;4.55;;;;;;;11.22;100.00;101423.25;4987165;28;20037;-68
2023/05/12 02:43:35;;;;;;;8.45;4.93;;;;;;;11.18;100.00;101417.13;4985960;28;20474;-68
2023/05/12 02:46:01;;;;;;;7.15;4.75;;;;;;;11.18;100.00;101424.41;4985953;28;20038;-68
2023/05/12 02:48:27;;;;;;;8.90;5.10;;;;;;;11.17;100.00;101418.09;4988490;28;20595;-67
2023/05/12 02:50:52;;;;;;;8.05;4.72;;;;;;;11.15;100.00;101411.03;4986012;28;20475;-68
2023/05/12 02:53:17;;;;;;;7.43;4.53;;;;;;;11.14;100.00;101411.97;5000703;28;20538;-68
2023/05/12 02:55:43;;;;;;;8.65;4.85;;;;;;;11.13;100.00;101411.09;4985489;28;20084;-67
2023/05/12 02:58:09;;;;;;;7.35;4.35;;;;;;;11.13;100.00;101412.97;4985455;28;20394;-68
2023/05/12 03:00:34;;;;;;;8.07;3.85;;;;;;;11.11;100.00;101407.63;4986955;28;20050;-67
2023/05/12 03:03:00;;;;;;;8.50;4.22;;;;;;;11.14;100.00;101406.53;4987632;28;20046;-69
2023/05/12 03:05:26;;;;;;;5.30;4.03;;;;;;;11.13;100.00;101402.94;4990220;28;20566;-68
2023/05/12 03:07:52;;;;;;;7.38;3.88;;;;;;;11.12;100.00;101398.47;4998349;28;20431;-67
2023/05/12 03:10:18;;;;;;;4.38;3.25;;;;;;;11.08;100.00;101399.66;4990367;28;20136;-68
2023/05/12 03:12:43;;;;;;;5.97;3.40;;;;;;;11.08;100.00;101396.94;4998454;28;20072;-67
2023/05/12 03:15:09;;;;;;;6.22;3.50;;;;;;;11.10;100.00;101395.00;5010293;28;20034;-68
2023/05/12 03:17:35;;;;;;;4.93;3.45;;;;;;;11.10;100.00;101394.13;5008591;28;20038;-67
2023/05/12 03:20:02;;;;;;;4.28;3.13;;;;;;;11.10;100.00;101394.13;5007930;28;20072;-67
2023/05/12 03:22:27;;;;;;;4.60;3.47;;;;;;;11.10;100.00;101386.81;4989965;28;20505;-67
2023/05/12 03:24:55;;;;;;;9.02;4.65;;;;;;;11.12;100.00;101386.72;5005765;28;20034;-68
2023/05/12 03:27:21;;;;;;;4.50;3.13;;;;;;;11.08;100.00;101393.34;5008276;28;20347;-67
2023/05/12 03:29:47;;;;;;;5.30;3.60;;;;;;;11.06;100.00;101396.16;5009293;28;20034;-68
2023/05/12 03:32:12;;;;;;;6.72;3.78;;;;;;;11.07;100.00;101380.69;5006443;28;20397;-68
2023/05/12 03:34:38;;;;;;;4.60;3.17;;;;;;;11.05;100.00;101379.91;4989265;28;20030;-67
2023/05/12 03:37:03;;;;;;;8.13;4.57;;;;;;;11.07;100.00;101377.97;4988522;28;20039;-67
2023/05/12 03:39:32;;;;;;;6.90;4.68;;;;;;;11.06;100.00;101376.22;4990560;28;20041;-67
2023/05/12 03:41:57;;;;;;;6.05;4.30;;;;;;;11.04;100.00;101380.88;4990315;28;20034;-67
2023/05/12 03:44:23;;;;;;;7.07;4.68;;;;;;;11.03;100.00;101376.44;4988828;28;20026;-67
2023/05/12 03:46:48;;;;;;;9.13;4.93;;;;;;;11.05;100.00;101369.00;4988806;28;20045;-68
2023/05/12 03:49:14;;;;;;;8.80;5.32;;;;;;;11.05;100.00;101379.91;4989739;28;20031;-68
2023/05/12 03:51:40;;;;;;;9.30;4.85;;;;;;;11.03;100.00;101368.25;4992433;28;20026;-67
2023/05/12 03:54:05;;;;;;;9.27;5.25;;;;;;;11.02;100.00;101367.38;4996758;28;20503;-68
2023/05/12 03:56:30;;;;;;;8.30;5.35;;;;;;;11.01;100.00;101372.94;4988536;28;20181;-68
2023/05/12 03:58:56;;;;;;;11.40;4.90;;;;;;;11.02;100.00;101372.84;4989236;28;20053;-67
2023/05/12 04:01:22;;;;;;;12.15;5.70;;;;;;;11.02;100.00;101372.84;4988293;28;20072;-68
2023/05/12 04:03:47;;;;;;;12.80;6.30;;;;;;;11.03;100.00;101368.25;4989543;28;20457;-67
2023/05/12 04:06:13;;;;;;;12.70;6.43;;;;;;;11.02;100.00;101370.13;5003970;28;20034;-68
2023/05/12 04:08:38;;;;;;;12.25;6.22;;;;;;;11.02;100.00;101370.13;4992900;28;20030;-68
2023/05/12 04:11:05;;;;;;;16.75;7.75;;;;;;;10.96;100.00;101368.66;5007587;28;20116;-67
2023/05/12 04:13:31;;;;;;;16.42;7.90;;;;;;;10.95;100.00;101363.31;5009258;28;20061;-68
2023/05/12 04:15:58;;;;;;;15.07;8.07;;;;;;;10.93;100.00;101365.28;4997175;28;20042;-67
2023/05/12 04:18:26;;;;;;;14.10;7.18;;;;;;;10.91;100.00;101359.03;4988085;28;20113;-67
2023/05/12 04:20:54;;;;;;;20.55;8.88;;;;;;;10.94;100.00;101367.88;4988371;28;20168;-68
2023/05/12 04:23:20;;;;;;;18.30;8.25;;;;;;;10.95;100.00;101369.63;5001131;28;20018;-67
2023/05/12 04:25:47;;;;;;;18.50;9.02;;;;;;;10.93;100.00;101368.00;4987998;28;20030;-67
2023/05/12 04:28:12;;;;;;;14.43;8.15;;;;;;;10.92;100.00;101371.69;4987890;28;20034;-67
2023/05/12 04:30:39;;;;;;;18.73;8.23;;;;;;;10.92;100.00;101369.84;4988348;28;20383;-67
2023/05/12 04:33:05;;;;;;;19.13;10.30;;;;;;;10.91;100.00;101362.66;4988498;28;20073;-67
2023/05/12 04:35:31;;;;;;;22.88;10.13;;;;;;;10.92;100.00;101364.41;4989783;28;20398;-67
2023/05/12 04:37:56;;;;;;;22.77;9.93;;;;;;;10.94;100.00;101361.56;4998362;28;20506;-68
2023/05/12 04:40:22;;;;;;;24.23;10.48;;;;;;;10.95;100.00;101369.63;4987677;28;20085;-68
2023/05/12 04:42:48;;;;;;;25.98;10.98;;;;;;;10.93;100.00;101365.28;4987790;28;20495;-67
2023/05/12 04:45:14;;;;;;;32.88;11.63;;;;;;;10.92;100.00;101355.38;4987667;28;20121;-68
2023/05/12 04:47:40;;;;;;;25.63;10.93;;;;;;;10.92;100.00;101367.13;4995677;28;20042;-68
2023/05/12 04:50:06;;;;;;;26.67;11.85;;;;;;;10.96;100.00;101375.97;5008264;28;20044;-68
2023/05/12 04:52:32;;;;;;;26.33;11.20;;;;;;;10.96;100.00;101371.41;5005046;28;20088;-68
2023/05/12 04:54:57;;;;;;;23.38;11.32;;;;;;;10.98;100.00;101371.28;4989938;28;20030;-67
2023/05/12 04:57:23;;;;;;;30.65;11.20;;;;;;;10.99;100.00;101373.91;5002367;28;20482;-67
2023/05/12 04:59:49;;;;;;;30.63;12.60;;;;;;;11.00;100.00;101372.03;5006703;28;20323;-68
2023/05/12 05:02:15;;;;;;;30.92;12.43;;;;;;;11.02;100.00;101385.56;5005622;28;20052;-68
2023/05/12 05:04:40;;;;;;;33.63;13.25;;;;;;;11.02;100.00;101383.72;4987018;28;20030;-67
2023/05/12 05:07:06;;;;;;;38.75;14.85;;;;;;;11.02;100.00;101381.00;4987149;28;20093;-67
2023/05/12 05:09:32;;;;;;;32.08;13.02;;;;;;;11.05;100.00;101380.81;4987353;28;20053;-68
2023/05/12 05:11:58;;;;;;;36.72;14.20;;;;;;;11.07;100.00;101384.28;4988340;28;20030;-67
2023/05/12 05:14:23;;;;;;;41.10;15.63;;;;;;;11.10;100.00;101388.69;4987312;28;20062;-67
2023/05/12 05:16:49;;;;;;;39.08;15.65;;;;;;;11.10;100.00;101381.38;4988441;28;20668;-68
2023/05/12 05:19:15;;;;;;;43.15;17.00;;;;;;;11.15;100.00;101398.28;4986914;28;20033;-67
2023/05/12 05:21:41;;;;;;;40.45;16.52;;;;;;;11.19;100.00;101390.75;4990746;28;20034;-68
2023/05/12 05:24:06;;;;;;;32.88;15.20;;;;;;;11.24;100.00;101392.22;4997024;28;20043;-68
2023/05/12 05:26:32;;;;;;;39.13;16.98;;;;;;;11.27;100.00;101399.31;5000066;28;20045;-68
2023/05/12 05:28:58;;;;;;;44.08;16.98;;;;;;;11.29;100.00;101400.09;4998425;28;20030;-68
2023/05/12 05:31:27;;;;;;;41.78;16.70;;;;;;;11.32;100.00;101396.28;5006190;28;20041;-68
2023/05/12 05:33:53;;;;;;;38.78;17.08;;;;;;;11.34;100.00;101400.66;4999155;28;20053;-68
2023/05/12 05:36:20;;;;;;;40.25;16.52;;;;;;;11.40;100.00;101400.25;5002676;28;20509;-68
2023/05/12 05:38:46;;;;;;;40.10;17.20;;;;;;;11.43;100.00;101410.94;4985839;28;20409;-68
2023/05/12 05:41:12;;;;;;;39.88;17.90;;;;;;;11.45;100.00;101406.25;4986450;28;20034;-68
2023/05/12 05:43:38;;;;;;;45.42;18.92;;;;;;;11.48;100.00;101397.00;4986995;28;20058;-68
2023/05/12 05:46:04;;;;;;;40.10;15.70;;;;;;;11.54;100.00;101414.78;4986485;28;20455;-68
2023/05/12 05:48:30;;;;;;;40.88;18.05;;;;;;;11.57;100.00;101414.59;4987785;28;20490;-69
2023/05/12 05:50:55;;;;;;;39.17;18.77;;;;;;;11.59;100.00;101413.50;4987537;28;20030;-68
2023/05/12 05:53:22;;;;;;;46.45;19.08;;;;;;;11.63;100.00;101415.03;4999384;28;20371;-68
2023/05/12 05:55:48;;;;;;;42.17;18.70;;;;;;;11.72;100.00;101421.72;4986300;28;20031;-68
2023/05/12 05:58:14;;;;;;;39.20;17.73;;;;;;;11.77;100.00;101418.69;4986527;28;20034;-68
2023/05/12 06:00:41;;;;;;;42.13;19.27;;;;;;;11.81;100.00;101429.28;4986535;28;20031;-68
2023/05/12 06:03:07;;;;;;;42.40;19.02;;;;;;;11.88;100.00;101427.03;4985891;28;20064;-68
2023/05/12 06:05:32;;;;;;;44.92;19.58;;;;;;;11.93;100.00;101430.31;4987563;28;20141;-68
2023/05/12 06:07:58;;;;;;;39.97;17.80;;;;;;;11.99;100.00;101430.78;4997031;28;20030;-68
2023/05/12 06:10:24;;;;;;;42.70;19.38;;;;;;;12.06;100.00;101433.94;4986772;28;20069;-72
2023/05/12 06:12:50;;;;;;;42.75;19.25;;;;;;;12.11;100.00;101437.22;4986292;28;20049;-72
2023/05/12 06:15:15;;;;;;;48.28;20.10;;;;;;;12.17;100.00;101439.53;4986160;28;20100;-73
2023/05/12 06:17:41;;;;;;;44.08;20.00;;;;;;;12.25;100.00;101439.84;4986853;28;20038;-72
2023/05/12 06:20:07;;;;;;;43.03;19.38;;;;;;;12.34;100.00;101451.09;4985992;28;20030;-73
2023/05/12 06:22:33;;;;;;;41.05;19.08;;;;;;;12.39;100.00;101452.53;4985166;28;20149;-72
2023/05/12 06:24:59;;;;;;;39.83;18.75;;;;;;;12.48;100.00;101453.75;4988211;28;20058;-72
2023/05/12 06:27:25;;;;;;;39.72;20.38;;;;;;;12.54;100.00;101460.59;4986098;28;20129;-72
2023/05/12 06:29:50;;;;;;;39.83;19.23;;;;;;;12.61;100.00;101460.06;4986115;28;20052;-73
2023/05/12 06:32:16;;;;;;;43.03;18.88;;;;;;;12.67;100.00;101461.50;4986856;28;20046;-72
2023/05/12 06:34:41;;;;;;;42.15;19.85;;;;;;;12.73;100.00;101469.25;4998183;28;20478;-72
2023/05/12 06:37:07;;;;;;;40.38;20.23;;;;;;;12.82;100.00;101467.69;4988019;28;20505;-73
2023/05/12 06:39:33;;;;;;;38.47;20.02;;;;;;;12.90;100.00;101474.38;5002324;28;20460;-73
2023/05/12 06:41:58;;;;;;;37.50;19.58;;;;;;;12.95;100.00;101465.84;5008591;28;20132;-73
2023/05/12 06:44:24;;;;;;;37.20;18.85;;;;;;;13.07;100.00;101475.00;5009836;28;20359;-72
2023/05/12 06:46:51;;;;;;;34.67;19.83;;;;;;;13.14;100.00;101479.03;5009356;28;20084;-72
2023/05/12 06:49:16;;;;;;;35.92;18.70;;;;;;;13.21;100.00;101483.94;5001858;28;20409;-73
2023/05/12 06:51:42;;;;;;;35.38;19.70;;;;;;;13.33;100.00;101468.50;4989129;28;20128;-73
2023/05/12 06:54:10;;;;;;;33.13;19.60;;;;;;;13.47;100.00;101482.03;4995780;28;20124;-73
2023/05/12 06:56:35;;;;;;;32.42;19.73;;;;;;;13.57;100.00;101487.72;4990799;28;20122;-73
2023/05/12 06:59:01;;;;;;;30.33;18.48;;;;;;;13.66;100.00;101488.84;4991132;28;20034;-73
2023/05/12 07:01:28;;;;;;;34.22;19.35;;;;;;;13.75;100.00;101482.69;4991286;28;20077;-73
2023/05/12 07:03:53;;;;;;;32.65;19.88;;;;;;;13.83;100.00;101498.53;4990722;28;20088;-73
2023/05/12 07:06:19;;;;;;;28.77;18.95;;;;;;;13.95;100.00;101494.88;4990286;28;20292;-74
2023/05/12 07:08:45;;;;;;;29.75;18.77;;;;;;;14.04;100.00;101496.91;4989561;28;20041;-74
2023/05/12 07:11:10;;;;;;;28.17;18.42;;;;;;;14.11;100.00;101492.69;4990659;28;20038;-74
2023/05/12 07:13:36;;;;;;;25.75;18.02;;;;;;;14.20;100.00;101500.19;4990351;28;20045;-74
2023/05/12 07:16:02;;;;;;;37.83;19.17;;;;;;;14.27;100.00;101496.00;4990613;28;20038;-74
2023/05/12 07:18:27;;;;;;;26.73;18.05;;;;;;;14.26;100.00;101496.97;4990111;28;20398;-73
2023/05/12 07:20:53;;;;;;;28.95;18.90;;;;;;;14.29;100.00;101493.16;4990585;28;20065;-73
2023/05/12 07:23:18;;;;;;;30.13;19.65;;;;;;;14.33;100.00;101497.41;4988837;28;20061;-73
2023/05/12 07:25:44;;;;;;;26.25;18.10;;;;;;;14.45;100.00;101501.03;4989025;28;20046;-73
2023/05/12 07:28:10;;;;;;;25.27;16.73;;;;;;;14.56;100.00;101495.63;4990324;28;20034;-73
2023/05/12 07:30:36;;;;;;;23.67;16.25;;;;;;;14.67;100.00;101503.84;4990018;28;20781;-73
2023/05/12 07:33:01;;;;;;;21.98;13.77;;;;;;;14.71;98.99;101508.09;4988229;28;20042;-73
2023/05/12 07:35:27;;;;;;;20.65;14.38;;;;;;;14.90;100.00;101503.91;4973456;28;20099;-73
2023/05/12 07:37:52;;;;;;;19.55;12.82;;;;;;;15.02;98.62;101502.91;4988452;28;20058;-73
2023/05/12 07:40:18;;;;;;;19.92;12.38;;;;;;;15.11;97.47;101502.19;4988700;28;20034;-73
2023/05/12 07:42:43;;;;;;;15.02;11.18;;;;;;;15.15;95.00;101503.63;4989927;28;20022;-73
2023/05/12 07:45:09;;;;;;;15.02;11.02;;;;;;;15.19;97.35;101502.41;4989990;28;20034;-73
2023/05/12 07:47:34;;;;;;;18.50;11.65;;;;;;;15.26;97.44;101509.13;4989446;28;20437;-73
2023/05/12 07:50:00;;;;;;;14.77;9.95;;;;;;;15.18;93.21;101510.75;4990311;28;20495;-74
2023/05/12 07:52:25;;;;;;;14.48;9.90;;;;;;;15.11;93.73;101518.63;4988812;28;20048;-73
2023/05/12 07:54:51;;;;;;;15.23;9.88;;;;;;;14.97;92.80;101516.13;5003396;28;20044;-73
2023/05/12 07:57:16;;;;;;;12.88;9.20;;;;;;;14.96;93.36;101523.44;5009117;28;20024;-73
2023/05/12 07:59:41;;;;;;;12.88;10.00;;;;;;;14.96;94.53;101519.81;5008261;28;20379;-73
2023/05/12 08:02:07;;;;;;;11.38;8.75;;;;;;;15.01;93.03;101525.81;4987479;28;20457;-74
2023/05/12 08:04:33;;;;;;;14.18;8.77;;;;;;;15.12;91.44;101527.72;4988350;28;20042;-73
2023/05/12 08:06:58;;;;;;;10.07;8.05;;;;;;;15.11;91.34;101524.09;4992657;28;20084;-73
2023/05/12 08:09:23;;;;;;;10.20;8.43;;;;;;;15.26;93.86;101520.09;5006668;28;20037;-73
2023/05/12 08:11:49;;;;;;;9.88;8.63;;;;;;;15.41;92.54;101530.81;5007746;28;20084;-73
2023/05/12 08:14:14;;;;;;;11.27;7.97;;;;;;;15.43;88.92;101537.91;5004744;28;20053;-73
2023/05/12 08:16:41;;;;;;;12.32;8.13;;;;;;;15.66;88.64;101535.16;4987999;28;20458;-73
2023/05/12 08:19:06;;;;;;;10.43;8.55;;;;;;;15.76;87.49;101536.16;4988071;28;20120;-73
2023/05/12 08:21:32;;;;;;;12.13;9.52;;;;;;;15.79;87.86;101541.38;4989116;28;20116;-73
2023/05/12 08:23:57;;;;;;;13.45;9.48;;;;;;;15.92;89.35;101547.59;4988720;28;20062;-73
2023/05/12 08:26:23;;;;;;;12.25;8.43;;;;;;;16.20;86.83;101539.78;4989248;28;20041;-73
2023/05/12 08:28:49;;;;;;;10.30;9.23;;;;;;;16.72;89.65;101541.69;4987956;28;20434;-73
2023/05/12 08:31:15;;;;;;;11.98;8.95;;;;;;;16.88;83.27;101543.97;4989236;28;20149;-73
2023/05/12 08:33:40;;;;;;;12.50;7.40;;;;;;;16.76;81.79;101543.16;4991394;28;20046;-73
2023/05/12 08:36:06;;;;;;;9.98;7.30;;;;;;;16.73;84.04;101550.78;5008055;28;20045;-73
2023/05/12 08:38:31;;;;;;;8.45;7.53;;;;;;;16.87;86.02;101550.44;4988538;28;20056;-73
2023/05/12 08:41:11;;;;;;;7.63;6.20;;;;;;;16.79;84.49;101555.78;4989448;28;20042;-73
2023/05/12 08:43:42;;;;;;;7.22;5.93;;;;;;;16.87;81.93;101555.06;4987740;28;20135;-73
2023/05/12 08:46:08;;;;;;;6.93;6.03;;;;;;;17.21;83.36;101547.47;4987755;28;20050;-73
2023/05/12 08:48:34;;;;;;;8.38;5.97;;;;;;;17.24;80.98;101550.81;4988129;28;20053;-73
2023/05/12 08:51:05;;;;;;;7.32;6.15;;;;;;;17.08;78.90;101556.81;4988401;28;20092;-73
2023/05/12 08:53:32;;;;;;;6.35;5.53;;;;;;;17.23;78.56;101551.81;4987369;28;20371;-73
2023/05/12 08:56:01;;;;;;;7.93;6.28;;;;;;;17.47;80.95;101556.13;4987640;28;20490;-72
2023/05/12 08:58:27;;;;;;;7.03;4.55;;;;;;;17.75;74.44;101560.03;4989197;28;20349;-73
2023/05/12 09:00:53;;;;;;;7.03;4.55;;;;;;;18.00;79.33;101556.78;4987896;28;20140;-73
2023/05/12 09:03:20;;;;;;;8.07;4.85;;;;;;;18.04;76.68;101554.59;4988287;28;20445;-73
2023/05/12 09:05:45;;;;;;;8.20;5.03;;;;;;;18.06;75.33;101569.09;4988423;28;20478;-73
2023/05/12 09:08:11;;;;;;;7.15;4.63;;;;;;;18.08;73.33;101556.03;4997046;28;20030;-72
2023/05/12 09:10:37;;;;;;;5.70;4.57;;;;;;;18.26;74.59;101556.22;4988600;28;20030;-73
2023/05/12 09:13:13;;;;;;;6.95;4.97;;;;;;;18.39;73.59;101564.22;4988393;28;20438;-73
2023/05/12 09:15:43;;;;;;;6.90;4.70;;;;;;;18.38;73.56;101571.59;5003747;28;20545;-73
2023/05/12 09:18:08;;;;;;;4.80;4.13;;;;;;;18.54;72.32;101551.72;4986364;28;20038;-73
2023/05/12 09:20:34;;;;;;;4.47;3.72;;;;;;;18.80;74.78;101565.81;4988147;28;20050;-73
2023/05/12 09:23:14;;;;;;;9.55;4.47;;;;;;;19.16;70.50;101560.50;4987125;28;20098;-73
2023/05/12 09:25:40;;;;;;;4.53;4.10;;;;;;;19.15;68.70;101562.41;4988212;28;20486;-72
2023/05/12 09:28:05;;;;;;;5.65;4.70;;;;;;;19.41;71.92;101562.63;4987974;28;20034;-72
2023/05/12 09:30:34;;;;;;;7.05;3.60;;;;;;;19.55;70.88;101567.63;4988183;28;20038;-72
2023/05/12 09:33:10;;;;;;;5.53;3.72;;;;;;;19.96;71.56;101562.66;4986551;28;20136;-73
2023/05/12 09:35:44;;;;;;;4.45;3.25;;;;;;;20.18;67.43;101566.00;4988052;28;20034;-72
2023/05/12 09:38:12;;;;;;;5.35;3.47;;;;;;;20.39;69.10;101566.59;4985873;28;20058;-73
2023/05/12 09:40:37;;;;;;;4.43;3.42;;;;;;;20.43;65.95;101561.63;4987778;28;20121;-72
2023/05/12 09:43:06;;;;;;;6.72;3.13;;;;;;;20.41;64.82;101564.50;4987823;28;20038;-72
2023/05/12 09:45:33;;;;;;;4.47;3.20;;;;;;;20.30;66.65;101570.28;4988067;28;20390;-72
2023/05/12 09:48:08;;;;;;;4.80;3.10;;;;;;;19.99;62.17;101569.75;4987734;28;20038;-72
2023/05/12 09:50:33;;;;;;;5.30;2.97;;;;;;;20.04;67.26;101575.69;4987771;28;20078;-72
2023/05/12 09:52:59;;;;;;;6.45;3.03;;;;;;;20.02;63.86;101577.75;4985308;28;20034;-74
2023/05/12 09:55:24;;;;;;;3.58;2.83;;;;;;;19.82;62.01;101569.59;5002034;28;20549;-72
2023/05/12 09:57:52;;;;;;;4.97;2.95;;;;;;;19.80;62.32;101571.59;4987787;28;20533;-72
2023/05/12 10:00:17;;;;;;;5.10;2.92;;;;;;;19.78;65.69;101570.03;4987643;28;20125;-72
2023/05/12 10:02:47;;;;;;;5.03;3.08;;;;;;;19.80;66.55;101563.31;4986862;28;20519;-72
2023/05/12 10:05:19;;;;;;;3.47;3.10;;;;;;;20.13;67.28;101572.84;4987698;28;20376;-72
2023/05/12 10:07:47;;;;;;;;;;;;;;;20.45;67.22;101578.91;4976955;28;20041;-72
2023/05/12 10:10:16;;;;;;;4.53;3.17;;;;;;;20.08;60.42;101574.34;4986995;28;20365;-72
2023/05/12 10:12:42;;;;;;;5.72;3.17;;;;;;;19.77;59.06;101582.97;4986904;28;20424;-72
2023/05/12 10:15:09;;;;;;;6.75;3.40;;;;;;;19.67;65.39;101587.66;4985776;28;20050;-73
2023/05/12 10:17:35;;;;;;;5.20;3.10;;;;;;;19.85;64.24;101576.66;4987130;28;20145;-72
2023/05/12 10:20:05;;;;;;;4.85;3.65;;;;;;;20.17;64.34;101578.94;4987256;28;20132;-73
2023/05/12 10:22:32;;;;;;;4.60;3.30;;;;;;;20.69;66.56;101581.91;4985822;28;20066;-73
2023/05/12 10:25:00;;;;;;;6.70;3.30;;;;;;;20.85;62.86;101583.97;4986359;28;20046;-72
2023/05/12 10:27:26;;;;;;;3.75;3.03;;;;;;;20.84;62.71;101569.28;4987503;28;20390;-72
2023/05/12 10:29:53;;;;;;;4.93;3.58;;;;;;;20.98;62.09;101584.41;4998558;28;20061;-73
2023/05/12 10:32:18;;;;;;;4.32;3.65;;;;;;;20.63;58.68;101586.19;4997983;28;20500;-73
2023/05/12 10:34:43;;;;;;;4.05;3.08;;;;;;;20.38;60.44;101585.06;5006972;28;20042;-72
2023/05/12 10:37:10;;;;;;;5.25;2.95;;;;;;;20.26;60.59;101585.44;4997387;28;20129;-72
2023/05/12 10:39:36;;;;;;;4.75;2.85;;;;;;;20.45;59.80;101584.44;4985617;28;20466;-73
2023/05/12 10:42:07;;;;;;;4.30;2.92;;;;;;;20.64;59.19;101585.16;4986544;28;20132;-73
2023/05/12 10:44:34;;;;;;;6.72;3.10;;;;;;;20.61;59.15;101587.38;4985545;28;20507;-73
2023/05/12 10:47:00;;;;;;;6.25;3.13;;;;;;;20.39;59.13;101586.78;4986360;28;20030;-73
2023/05/12 10:49:33;;;;;;;6.00;3.83;;;;;;;20.15;59.69;101583.78;4986331;28;20460;-72
2023/05/12 10:52:00;;;;;;;9.95;3.28;;;;;;;19.99;58.09;101586.34;4987236;28;20037;-73
2023/05/12 10:54:25;;;;;;;4.55;3.20;;;;;;;20.00;60.17;101585.31;4994332;28;20050;-72
2023/05/12 10:56:56;;;;;;;8.70;3.30;;;;;;;20.31;61.95;101594.13;4995407;28;20049;-72
2023/05/12 10:59:23;;;;;;;5.90;2.97;;;;;;;20.18;59.96;101600.03;5002241;28;20493;-72
2023/05/12 11:02:01;;;;;;;4.40;3.72;;;;;;;20.03;62.30;101596.91;4999516;28;20045;-72
2023/05/12 11:04:39;;;;;;;5.35;3.70;;;;;;;19.87;63.50;101591.22;5001465;28;20095;-72
2023/05/12 11:07:06;;;;;;;7.15;4.07;;;;;;;19.88;63.04;101595.72;4992338;28;20045;-73